Joe Foss Field Airport
KFSD : now visible

Airfield :











YOU CAN JOIN US ON...

 
LOGIN :

Register | Disclaimer

   EN    FR    IT 

 









Legend :    VFR   Marginal VFR   IFR   Intensive IFR   Very Intensive IFR
Visi :
Ceiling :
>= 8 km
>= 3000ft
5 to 8 km
1000 to 3000 ft
1500m to 5 km
500 to 1000 ft
800 to 1500m
200 to 500 ft
< 800m
< 200 ft
Symbols :   Thunderstorms  Fog  Heavy snow  Heavy precipitations  Wind > 20 kt






- Airport Elevation : 1429 ft
- IATA code : FSD


KFSD - Joe Foss Field

CURRENT METAR :
  • 010156Z 11014KT 10SM FEW060 SCT150 BKN250 11/00 A2987 RMK AO2 SLP123 T01060000

EXPIRED METARs :
  • 010056Z 11013KT 10SM FEW060 SCT150 BKN250 13/M01 A2987 RMK AO2 SLP120 T01281011
  • 312356Z 12018G24KT 10SM FEW050 SCT180 BKN250 15/M01 A2988 RMK AO2 PK WND 11026/2329 SLP122 T01501006 10167 20072 56013

TAF KFSD
Valid from the 01 at 00:00 until the 02 at 00:00 UTC


312322Z 0100/0124 14015G20KT P6SM SCT050 BKN150
FM010500 13014G21KT P6SM VCSH BKN200
FM010700 13014G21KT P6SM BKN100
FM011600 16013G19KT P6SM BKN150
FM012100 18010KT P6SM BKN200



MET'MAP, your aeronautical weather chart ! - Copyright ORBIFLY December 2007 - Disclaimer

ORBIFLY MET'MAP TEAM :

Programming & Development : Alexandra Zaïnal
Concept & original design : Baudouin d'Aumeries
Assistance for programming : Marc-Olivier Méhu
Technical & hardware support : Manuel Goepfert

Contact : metmap@orbifly.com




SOURCES & CREDITS :

   NOAA       Earth
Advisory